sensor_id;sensor_type;location;lat;lon;timestamp;pressure;altitude;pressure_sealevel;temperature;humidity
21594;BME280;10959;51.328;7.322;2023-04-22T00:01:49;73851.91;;;-147.06;55.03
21594;BME280;10959;51.328;7.322;2023-04-22T00:04:15;73862.16;;;-147.06;55.39
21594;BME280;10959;51.328;7.322;2023-04-22T00:06:42;73866.25;;;-147.06;55.75
21594;BME280;10959;51.328;7.322;2023-04-22T00:09:11;73880.59;;;-147.06;56.02
21594;BME280;10959;51.328;7.322;2023-04-22T00:11:37;73890.84;;;-147.06;56.07
21594;BME280;10959;51.328;7.322;2023-04-22T00:14:04;73884.69;;;-147.06;56.14
21594;BME280;10959;51.328;7.322;2023-04-22T00:16:30;73888.78;;;-147.06;55.99
21594;BME280;10959;51.328;7.322;2023-04-22T00:18:56;73884.69;;;-147.06;56.21
21594;BME280;10959;51.328;7.322;2023-04-22T00:21:23;73892.88;;;-147.06;56.34
21594;BME280;10959;51.328;7.322;2023-04-22T00:23:49;73896.97;;;-147.06;56.38
21594;BME280;10959;51.328;7.322;2023-04-22T00:26:17;73892.88;;;-147.06;56.27
21594;BME280;10959;51.328;7.322;2023-04-22T00:28:43;73901.06;;;-147.06;56.19
21594;BME280;10959;51.328;7.322;2023-04-22T00:31:10;73905.19;;;-147.06;56.13
21594;BME280;10959;51.328;7.322;2023-04-22T00:33:36;73903.13;;;-147.06;56.01
21594;BME280;10959;51.328;7.322;2023-04-22T00:36:03;73905.19;;;-147.06;56.07
21594;BME280;10959;51.328;7.322;2023-04-22T00:38:30;73901.06;;;-147.06;56.08
21594;BME280;10959;51.328;7.322;2023-04-22T00:40:56;73896.97;;;-147.06;56.05
21594;BME280;10959;51.328;7.322;2023-04-22T00:43:24;73892.88;;;-147.06;56.08
21594;BME280;10959;51.328;7.322;2023-04-22T00:45:51;73899.03;;;-147.06;56.02
21594;BME280;10959;51.328;7.322;2023-04-22T00:48:18;73896.97;;;-147.06;55.96
21594;BME280;10959;51.328;7.322;2023-04-22T00:50:45;73896.97;;;-147.06;56.04
21594;BME280;10959;51.328;7.322;2023-04-22T00:53:11;73899.03;;;-147.06;56.02
21594;BME280;10959;51.328;7.322;2023-04-22T00:55:37;73905.19;;;-147.06;56.12
21594;BME280;10959;51.328;7.322;2023-04-22T00:58:04;73901.06;;;-147.06;55.94
21594;BME280;10959;51.328;7.322;2023-04-22T01:00:32;73896.97;;;-147.06;56.24
21594;BME280;10959;51.328;7.322;2023-04-22T01:02:58;73901.06;;;-147.06;56.29
21594;BME280;10959;51.328;7.322;2023-04-22T01:05:26;73901.06;;;-147.06;56.21
21594;BME280;10959;51.328;7.322;2023-04-22T01:07:54;73903.13;;;-147.06;56.18
21594;BME280;10959;51.328;7.322;2023-04-22T01:10:21;73905.19;;;-147.06;56.26
21594;BME280;10959;51.328;7.322;2023-04-22T01:12:48;73901.06;;;-147.06;56.30
21594;BME280;10959;51.328;7.322;2023-04-22T01:15:14;73899.03;;;-147.06;56.36
21594;BME280;10959;51.328;7.322;2023-04-22T01:17:43;73896.97;;;-147.06;56.29
21594;BME280;10959;51.328;7.322;2023-04-22T01:20:10;73899.03;;;-147.06;56.52
21594;BME280;10959;51.328;7.322;2023-04-22T01:22:40;73896.97;;;-147.06;56.64
21594;BME280;10959;51.328;7.322;2023-04-22T01:25:09;73890.84;;;-147.06;56.62
21594;BME280;10959;51.328;7.322;2023-04-22T01:27:37;73880.59;;;-147.06;56.57
21594;BME280;10959;51.328;7.322;2023-04-22T01:30:05;73884.69;;;-147.06;56.49
21594;BME280;10959;51.328;7.322;2023-04-22T01:32:32;73880.59;;;-147.06;56.60
21594;BME280;10959;51.328;7.322;2023-04-22T01:35:00;73884.69;;;-147.06;56.46
21594;BME280;10959;51.328;7.322;2023-04-22T01:37:27;73876.50;;;-147.06;56.45
21594;BME280;10959;51.328;7.322;2023-04-22T01:39:54;73880.59;;;-147.06;56.45
21594;BME280;10959;51.328;7.322;2023-04-22T01:42:23;73876.50;;;-147.06;56.24
21594;BME280;10959;51.328;7.322;2023-04-22T01:44:50;73882.63;;;-147.06;56.55
21594;BME280;10959;51.328;7.322;2023-04-22T01:47:16;73880.59;;;-147.06;56.48
21594;BME280;10959;51.328;7.322;2023-04-22T01:49:43;73884.69;;;-147.06;56.59
21594;BME280;10959;51.328;7.322;2023-04-22T01:52:09;73880.59;;;-147.06;56.69
21594;BME280;10959;51.328;7.322;2023-04-22T01:54:36;73884.69;;;-147.06;56.48
21594;BME280;10959;51.328;7.322;2023-04-22T01:57:07;73888.78;;;-147.06;56.35
21594;BME280;10959;51.328;7.322;2023-04-22T01:59:36;73886.75;;;-147.06;56.38
21594;BME280;10959;51.328;7.322;2023-04-22T02:02:03;73876.50;;;-147.06;56.26
21594;BME280;10959;51.328;7.322;2023-04-22T02:04:29;73880.59;;;-147.06;56.28
21594;BME280;10959;51.328;7.322;2023-04-22T02:06:56;73876.50;;;-147.06;56.36
21594;BME280;10959;51.328;7.322;2023-04-22T02:09:22;73878.53;;;-147.06;56.26
21594;BME280;10959;51.328;7.322;2023-04-22T02:11:48;73868.31;;;-147.06;56.14
21594;BME280;10959;51.328;7.322;2023-04-22T02:14:15;73864.19;;;-147.06;56.18
21594;BME280;10959;51.328;7.322;2023-04-22T02:16:43;73851.91;;;-147.06;55.97
21594;BME280;10959;51.328;7.322;2023-04-22T02:19:09;73856.00;;;-147.06;56.11
21594;BME280;10959;51.328;7.322;2023-04-22T02:21:36;73851.91;;;-147.06;55.97
21594;BME280;10959;51.328;7.322;2023-04-22T02:24:02;73845.78;;;-147.06;56.20
21594;BME280;10959;51.328;7.322;2023-04-22T02:26:29;73843.72;;;-147.06;56.10
21594;BME280;10959;51.328;7.322;2023-04-22T02:28:55;73849.88;;;-147.06;56.00
21594;BME280;10959;51.328;7.322;2023-04-22T02:31:22;73843.72;;;-147.06;56.13
21594;BME280;10959;51.328;7.322;2023-04-22T02:33:50;73843.72;;;-147.06;56.09
21594;BME280;10959;51.328;7.322;2023-04-22T02:36:16;73847.81;;;-147.06;nan
21594;BME280;10959;51.328;7.322;2023-04-22T02:38:42;73847.81;;;-147.06;56.23
21594;BME280;10959;51.328;7.322;2023-04-22T02:41:09;73843.72;;;-147.06;56.11
21594;BME280;10959;51.328;7.322;2023-04-22T02:43:35;73839.63;;;-147.06;55.98
21594;BME280;10959;51.328;7.322;2023-04-22T02:46:02;73839.63;;;-147.06;56.00
21594;BME280;10959;51.328;7.322;2023-04-22T02:48:28;73839.63;;;-147.06;56.18
21594;BME280;10959;51.328;7.322;2023-04-22T02:50:56;73839.63;;;-147.06;56.10
21594;BME280;10959;51.328;7.322;2023-04-22T02:53:23;73831.44;;;-147.06;55.99
21594;BME280;10959;51.328;7.322;2023-04-22T02:55:49;73833.47;;;-147.06;56.18
21594;BME280;10959;51.328;7.322;2023-04-22T02:58:16;73829.38;;;-147.06;56.13
21594;BME280;10959;51.328;7.322;2023-04-22T03:00:42;73827.34;;;-147.06;56.00
21594;BME280;10959;51.328;7.322;2023-04-22T03:03:09;73827.34;;;-147.06;56.22
21594;BME280;10959;51.328;7.322;2023-04-22T03:05:35;73819.13;;;-147.06;56.02
21594;BME280;10959;51.328;7.322;2023-04-22T03:08:03;73819.13;;;-147.06;56.00
21594;BME280;10959;51.328;7.322;2023-04-22T03:10:30;73819.13;;;-147.06;56.10
21594;BME280;10959;51.328;7.322;2023-04-22T03:12:57;73806.84;;;-147.06;56.00
21594;BME280;10959;51.328;7.322;2023-04-22T03:15:23;73800.69;;;-147.06;56.01
21594;BME280;10959;51.328;7.322;2023-04-22T03:17:50;73794.56;;;-147.06;55.80
21594;BME280;10959;51.328;7.322;2023-04-22T03:20:16;73794.56;;;-147.06;55.88
21594;BME280;10959;51.328;7.322;2023-04-22T03:22:43;73790.47;;;-147.06;55.77
21594;BME280;10959;51.328;7.322;2023-04-22T03:25:11;73790.47;;;-147.06;55.79
21594;BME280;10959;51.328;7.322;2023-04-22T03:27:37;73794.56;;;-147.06;56.12
21594;BME280;10959;51.328;7.322;2023-04-22T03:30:05;73786.38;;;-147.06;56.04
21594;BME280;10959;51.328;7.322;2023-04-22T03:32:31;73790.47;;;-147.06;55.88
21594;BME280;10959;51.328;7.322;2023-04-22T03:34:58;73778.16;;;-147.06;55.85
21594;BME280;10959;51.328;7.322;2023-04-22T03:37:25;73776.13;;;-147.06;55.67
21594;BME280;10959;51.328;7.322;2023-04-22T03:39:51;73769.97;;;-147.06;55.80
21594;BME280;10959;51.328;7.322;2023-04-22T03:42:19;73774.06;;;-147.06;55.63
21594;BME280;10959;51.328;7.322;2023-04-22T03:44:46;73774.06;;;-147.06;55.94
21594;BME280;10959;51.328;7.322;2023-04-22T03:47:12;73778.16;;;-147.06;55.92
21594;BME280;10959;51.328;7.322;2023-04-22T03:49:38;73763.81;;;-147.06;55.76
21594;BME280;10959;51.328;7.322;2023-04-22T03:52:05;73757.69;;;-147.06;55.63
21594;BME280;10959;51.328;7.322;2023-04-22T03:54:31;73747.44;;;-147.06;55.60
21594;BME280;10959;51.328;7.322;2023-04-22T03:56:58;73749.50;;;-147.06;55.64
21594;BME280;10959;51.328;7.322;2023-04-22T03:59:26;73745.41;;;-147.06;55.60
21594;BME280;10959;51.328;7.322;2023-04-22T04:01:52;73741.28;;;-147.06;55.38
21594;BME280;10959;51.328;7.322;2023-04-22T04:04:19;73741.28;;;-147.06;55.46
21594;BME280;10959;51.328;7.322;2023-04-22T04:06:47;73741.28;;;-147.06;55.46
21594;BME280;10959;51.328;7.322;2023-04-22T04:09:13;73741.28;;;-147.06;55.46
21594;BME280;10959;51.328;7.322;2023-04-22T04:11:40;73737.19;;;-147.06;55.38
21594;BME280;10959;51.328;7.322;2023-04-22T04:14:07;73739.25;;;-147.06;55.70
21594;BME280;10959;51.328;7.322;2023-04-22T04:16:35;73733.09;;;-147.06;55.43
21594;BME280;10959;51.328;7.322;2023-04-22T04:19:02;73733.09;;;-147.06;55.18
21594;BME280;10959;51.328;7.322;2023-04-22T04:21:28;73726.97;;;-147.06;55.26
21594;BME280;10959;51.328;7.322;2023-04-22T04:23:57;73720.81;;;-147.06;55.12
21594;BME280;10959;51.328;7.322;2023-04-22T04:26:24;73716.72;;;-147.06;55.11
21594;BME280;10959;51.328;7.322;2023-04-22T04:28:51;73712.63;;;-147.06;55.09
21594;BME280;10959;51.328;7.322;2023-04-22T04:31:18;73708.53;;;-147.06;55.06
21594;BME280;10959;51.328;7.322;2023-04-22T04:33:45;73712.63;;;-147.06;55.14
21594;BME280;10959;51.328;7.322;2023-04-22T04:36:12;73716.72;;;-147.06;55.17
21594;BME280;10959;51.328;7.322;2023-04-22T04:38:39;73712.63;;;-147.06;54.98
21594;BME280;10959;51.328;7.322;2023-04-22T04:41:06;73706.47;;;-147.06;55.16
21594;BME280;10959;51.328;7.322;2023-04-22T04:43:33;73700.31;;;-147.06;54.98
21594;BME280;10959;51.328;7.322;2023-04-22T04:46:00;73692.13;;;-147.06;55.05
21594;BME280;10959;51.328;7.322;2023-04-22T04:48:27;73692.13;;;-147.06;55.05
21594;BME280;10959;51.328;7.322;2023-04-22T04:50:54;73679.84;;;-147.06;55.01
21594;BME280;10959;51.328;7.322;2023-04-22T04:53:23;73686.00;;;-147.06;54.92
21594;BME280;10959;51.328;7.322;2023-04-22T04:55:49;73675.75;;;-147.06;54.99
21594;BME280;10959;51.328;7.322;2023-04-22T04:58:16;73671.66;;;-147.06;54.98
21594;BME280;10959;51.328;7.322;2023-04-22T05:00:42;73677.78;;;-147.06;54.94
21594;BME280;10959;51.328;7.322;2023-04-22T05:03:08;73671.66;;;-147.06;54.89
21594;BME280;10959;51.328;7.322;2023-04-22T05:05:35;73673.69;;;-147.06;54.96
21594;BME280;10959;51.328;7.322;2023-04-22T05:08:03;73675.75;;;-147.06;55.04
21594;BME280;10959;51.328;7.322;2023-04-22T05:10:29;73671.66;;;-147.06;54.94
21594;BME280;10959;51.328;7.322;2023-04-22T05:12:56;73667.56;;;-147.06;55.10
21594;BME280;10959;51.328;7.322;2023-04-22T05:15:22;73673.69;;;-147.06;55.04
21594;BME280;10959;51.328;7.322;2023-04-22T05:17:49;73673.69;;;-147.06;55.02
21594;BME280;10959;51.328;7.322;2023-04-22T05:20:15;73667.56;;;-147.06;54.96
21594;BME280;10959;51.328;7.322;2023-04-22T05:22:41;73663.47;;;-147.06;55.03
21594;BME280;10959;51.328;7.322;2023-04-22T05:25:11;73661.41;;;-147.06;54.93
21594;BME280;10959;51.328;7.322;2023-04-22T05:27:37;73651.16;;;-147.06;54.90
21594;BME280;10959;51.328;7.322;2023-04-22T05:30:06;73638.88;;;-147.06;54.88
21594;BME280;10959;51.328;7.322;2023-04-22T05:32:33;73630.69;;;-147.06;54.80
21594;BME280;10959;51.328;7.322;2023-04-22T05:34:59;73632.72;;;-147.06;54.71
21594;BME280;10959;51.328;7.322;2023-04-22T05:37:25;73630.69;;;-147.06;54.71
21594;BME280;10959;51.328;7.322;2023-04-22T05:39:52;73630.69;;;-147.06;54.68
21594;BME280;10959;51.328;7.322;2023-04-22T05:42:20;73624.53;;;-147.06;54.64
21594;BME280;10959;51.328;7.322;2023-04-22T05:44:46;73622.50;;;-147.06;54.68
21594;BME280;10959;51.328;7.322;2023-04-22T05:47:13;73614.28;;;-147.06;54.61
21594;BME280;10959;51.328;7.322;2023-04-22T05:49:39;73612.25;;;-147.06;54.66
21594;BME280;10959;51.328;7.322;2023-04-22T05:52:05;73604.06;;;-147.06;54.62
21594;BME280;10959;51.328;7.322;2023-04-22T05:54:32;73597.91;;;-147.06;54.58
21594;BME280;10959;51.328;7.322;2023-04-22T05:56:58;73593.81;;;-147.06;54.52
21594;BME280;10959;51.328;7.322;2023-04-22T05:59:27;73589.72;;;-147.06;54.36
21594;BME280;10959;51.328;7.322;2023-04-22T06:01:54;73581.53;;;-147.06;54.27
21594;BME280;10959;51.328;7.322;2023-04-22T06:04:20;73569.22;;;-147.06;54.18
21594;BME280;10959;51.328;7.322;2023-04-22T06:06:47;73567.19;;;-147.06;54.22
21594;BME280;10959;51.328;7.322;2023-04-22T06:09:14;73563.09;;;-147.06;54.09
21594;BME280;10959;51.328;7.322;2023-04-22T06:11:40;73559.00;;;-147.06;53.86
21594;BME280;10959;51.328;7.322;2023-04-22T06:14:07;73548.75;;;-147.06;53.82
21594;BME280;10959;51.328;7.322;2023-04-22T06:16:34;73538.50;;;-147.06;53.74
21594;BME280;10959;51.328;7.322;2023-04-22T06:19:01;73532.38;;;-147.06;53.80
21594;BME280;10959;51.328;7.322;2023-04-22T06:21:27;73528.25;;;-147.06;53.65
21594;BME280;10959;51.328;7.322;2023-04-22T06:23:54;73515.97;;;-147.06;53.75
21594;BME280;10959;51.328;7.322;2023-04-22T06:26:21;73507.78;;;-147.06;53.56
21594;BME280;10959;51.328;7.322;2023-04-22T06:28:47;73493.44;;;-147.06;53.40
21594;BME280;10959;51.328;7.322;2023-04-22T06:31:14;73499.59;;;-147.06;53.49
21594;BME280;10959;51.328;7.322;2023-04-22T06:33:42;73495.50;;;-147.06;53.07
21594;BME280;10959;51.328;7.322;2023-04-22T06:36:08;73495.50;;;-147.06;52.95
21594;BME280;10959;51.328;7.322;2023-04-22T06:38:35;73483.19;;;-147.06;52.98
21594;BME280;10959;51.328;7.322;2023-04-22T06:41:01;73464.75;;;-147.06;52.70
21594;BME280;10959;51.328;7.322;2023-04-22T06:43:27;73462.72;;;-147.06;52.35
21594;BME280;10959;51.328;7.322;2023-04-22T06:45:54;73440.19;;;-147.06;52.20
21594;BME280;10959;51.328;7.322;2023-04-22T06:48:20;73423.81;;;-147.06;52.12
21594;BME280;10959;51.328;7.322;2023-04-22T06:50:48;73409.47;;;-147.06;51.61
21594;BME280;10959;51.328;7.322;2023-04-22T06:53:15;73409.47;;;-147.06;51.93
21594;BME280;10959;51.328;7.322;2023-04-22T06:55:41;73409.47;;;-147.06;51.87
21594;BME280;10959;51.328;7.322;2023-04-22T06:58:07;73397.19;;;-147.06;52.03
21594;BME280;10959;51.328;7.322;2023-04-22T07:00:34;73397.19;;;-147.06;51.89
21594;BME280;10959;51.328;7.322;2023-04-22T07:03:00;73388.97;;;-147.06;51.69
21594;BME280;10959;51.328;7.322;2023-04-22T07:05:27;73393.06;;;-147.06;51.08
21594;BME280;10959;51.328;7.322;2023-04-22T07:07:55;73384.88;;;-147.06;50.73
21594;BME280;10959;51.328;7.322;2023-04-22T07:10:21;73360.31;;;-147.06;50.81
21594;BME280;10959;51.328;7.322;2023-04-22T07:12:47;73327.53;;;-147.06;49.91
21594;BME280;10959;51.328;7.322;2023-04-22T07:15:14;73282.47;;;-147.06;49.84
21594;BME280;10959;51.328;7.322;2023-04-22T07:17:41;73247.66;;;-147.06;49.27
21594;BME280;10959;51.328;7.322;2023-04-22T07:20:08;73229.22;;;-147.06;49.09
21594;BME280;10959;51.328;7.322;2023-04-22T07:22:34;73229.22;;;-147.06;49.19
21594;BME280;10959;51.328;7.322;2023-04-22T07:25:03;73229.22;;;-147.06;48.47
21594;BME280;10959;51.328;7.322;2023-04-22T07:27:31;73200.53;;;-147.06;48.22
21594;BME280;10959;51.328;7.322;2023-04-22T07:29:57;73137.06;;;-147.06;48.70
21594;BME280;10959;51.328;7.322;2023-04-22T07:32:24;73100.19;;;-147.06;47.80
21594;BME280;10959;51.328;7.322;2023-04-22T07:34:50;73073.56;;;-147.06;47.20
21594;BME280;10959;51.328;7.322;2023-04-22T07:37:17;73061.28;;;-147.06;47.08
21594;BME280;10959;51.328;7.322;2023-04-22T07:39:43;73028.50;;;-147.06;46.82
21594;BME280;10959;51.328;7.322;2023-04-22T07:42:11;72975.25;;;-147.06;46.75
21594;BME280;10959;51.328;7.322;2023-04-22T07:44:38;72950.69;;;-147.06;46.37
21594;BME280;10959;51.328;7.322;2023-04-22T07:47:04;72913.81;;;-147.06;46.16
21594;BME280;10959;51.328;7.322;2023-04-22T07:49:32;72885.16;;;-147.06;45.67
21594;BME280;10959;51.328;7.322;2023-04-22T07:51:59;72864.66;;;-147.06;44.43
21594;BME280;10959;51.328;7.322;2023-04-22T07:54:25;72842.13;;;-147.06;44.36
21594;BME280;10959;51.328;7.322;2023-04-22T07:56:52;72848.28;;;-147.06;44.13
21594;BME280;10959;51.328;7.322;2023-04-22T07:59:19;72842.13;;;-147.06;44.65
21594;BME280;10959;51.328;7.322;2023-04-22T08:01:46;72840.09;;;-147.06;43.17
21594;BME280;10959;51.328;7.322;2023-04-22T08:04:12;72879.00;;;-147.06;43.61
21594;BME280;10959;51.328;7.322;2023-04-22T08:06:39;72856.47;;;-147.06;43.30
21594;BME280;10959;51.328;7.322;2023-04-22T08:09:05;72827.78;;;-147.06;43.34
21594;BME280;10959;51.328;7.322;2023-04-22T08:11:31;72819.59;;;-147.06;42.82
21594;BME280;10959;51.328;7.322;2023-04-22T08:13:58;72809.38;;;-147.06;42.29
21594;BME280;10959;51.328;7.322;2023-04-22T08:16:26;72786.84;;;-147.06;42.45
21594;BME280;10959;51.328;7.322;2023-04-22T08:18:52;72766.34;;;-147.06;42.20
21594;BME280;10959;51.328;7.322;2023-04-22T08:21:20;72762.25;;;-147.06;41.38
21594;BME280;10959;51.328;7.322;2023-04-22T08:23:46;72770.47;;;-147.06;41.88
21594;BME280;10959;51.328;7.322;2023-04-22T08:26:13;72762.25;;;-147.06;41.50
21594;BME280;10959;51.328;7.322;2023-04-22T08:28:41;72737.69;;;-147.06;40.88
21594;BME280;10959;51.328;7.322;2023-04-22T08:31:07;72729.50;;;-147.06;41.45
21594;BME280;10959;51.328;7.322;2023-04-22T08:33:37;72709.03;;;-147.06;40.67
21594;BME280;10959;51.328;7.322;2023-04-22T08:36:04;72717.22;;;-147.06;39.93
21594;BME280;10959;51.328;7.322;2023-04-22T08:38:30;72676.25;;;-147.06;40.73
21594;BME280;10959;51.328;7.322;2023-04-22T08:40:57;72668.06;;;-147.06;40.68
21594;BME280;10959;51.328;7.322;2023-04-22T08:43:25;72680.34;;;-147.06;40.29
21594;BME280;10959;51.328;7.322;2023-04-22T08:45:52;72688.53;;;-147.06;40.38
21594;BME280;10959;51.328;7.322;2023-04-22T08:48:18;72663.97;;;-147.06;40.67
21594;BME280;10959;51.328;7.322;2023-04-22T08:50:47;72635.28;;;-147.06;40.04
21594;BME280;10959;51.328;7.322;2023-04-22T08:53:14;72645.53;;;-147.06;39.14
21594;BME280;10959;51.328;7.322;2023-04-22T08:55:42;72643.47;;;-147.06;40.24
21594;BME280;10959;51.328;7.322;2023-04-22T08:58:11;72639.38;;;-147.06;40.40
21594;BME280;10959;51.328;7.322;2023-04-22T09:00:38;72598.44;;;-147.06;40.50
21594;BME280;10959;51.328;7.322;2023-04-22T09:03:07;72586.16;;;-147.06;39.79
21594;BME280;10959;51.328;7.322;2023-04-22T09:05:36;72588.19;;;-147.06;40.31
21594;BME280;10959;51.328;7.322;2023-04-22T09:08:04;72565.66;;;-147.06;40.24
21594;BME280;10959;51.328;7.322;2023-04-22T09:10:32;72549.28;;;-147.06;40.31
21594;BME280;10959;51.328;7.322;2023-04-22T09:13:02;72541.09;;;-147.06;40.40
21594;BME280;10959;51.328;7.322;2023-04-22T09:15:28;72586.16;;;-147.06;39.49
21594;BME280;10959;51.328;7.322;2023-04-22T09:17:55;72606.63;;;-147.06;39.48
21594;BME280;10959;51.328;7.322;2023-04-22T09:20:25;72623.00;;;-147.06;39.79
21594;BME280;10959;51.328;7.322;2023-04-22T09:22:52;72582.06;;;-147.06;39.75
21594;BME280;10959;51.328;7.322;2023-04-22T09:25:22;72577.94;;;-147.06;39.65
21594;BME280;10959;51.328;7.322;2023-04-22T09:27:49;72553.38;;;-147.06;38.58
21594;BME280;10959;51.328;7.322;2023-04-22T09:30:17;72512.41;;;-147.06;39.00
21594;BME280;10959;51.328;7.322;2023-04-22T09:32:51;72500.13;;;-147.06;38.43
21594;BME280;10959;51.328;7.322;2023-04-22T09:35:24;72471.47;;;-147.06;38.25
21594;BME280;10959;51.328;7.322;2023-04-22T09:37:51;72483.75;;;-147.06;38.08
21594;BME280;10959;51.328;7.322;2023-04-22T09:40:19;72471.47;;;-147.06;37.98
21594;BME280;10959;51.328;7.322;2023-04-22T09:42:47;72438.69;;;-147.06;38.24
21594;BME280;10959;51.328;7.322;2023-04-22T09:45:26;72442.78;;;-147.06;38.51
21594;BME280;10959;51.328;7.322;2023-04-22T09:47:53;72420.28;;;-147.06;37.52
21594;BME280;10959;51.328;7.322;2023-04-22T09:50:20;72426.41;;;-147.06;38.14
21594;BME280;10959;51.328;7.322;2023-04-22T09:52:53;72451.00;;;-147.06;37.50
21594;BME280;10959;51.328;7.322;2023-04-22T09:55:22;72446.91;;;-147.06;37.48
21594;BME280;10959;51.328;7.322;2023-04-22T09:57:53;72442.78;;;-147.06;37.01
21594;BME280;10959;51.328;7.322;2023-04-22T10:00:22;72385.47;;;-147.06;37.13
21594;BME280;10959;51.328;7.322;2023-04-22T10:02:48;72348.59;;;-147.06;37.38
21594;BME280;10959;51.328;7.322;2023-04-22T10:05:15;72303.56;;;-147.06;37.27
21594;BME280;10959;51.328;7.322;2023-04-22T10:07:43;72254.41;;;-147.06;37.01
21594;BME280;10959;51.328;7.322;2023-04-22T10:10:09;72235.97;;;-147.06;36.49
21594;BME280;10959;51.328;7.322;2023-04-22T10:12:38;72195.03;;;-147.06;36.31
21594;BME280;10959;51.328;7.322;2023-04-22T10:15:06;72180.69;;;-147.06;35.52
21594;BME280;10959;51.328;7.322;2023-04-22T10:17:35;72192.97;;;-147.06;35.11
21594;BME280;10959;51.328;7.322;2023-04-22T10:20:06;72217.53;;;-147.06;34.36
21594;BME280;10959;51.328;7.322;2023-04-22T10:22:38;72201.16;;;-147.06;35.34
21594;BME280;10959;51.328;7.322;2023-04-22T10:25:10;72213.47;;;-147.06;34.83
21594;BME280;10959;51.328;7.322;2023-04-22T10:27:39;72221.66;;;-147.06;34.96
21594;BME280;10959;51.328;7.322;2023-04-22T10:30:07;72197.06;;;-147.06;35.24
21594;BME280;10959;51.328;7.322;2023-04-22T10:32:34;72192.97;;;-147.06;34.70
21594;BME280;10959;51.328;7.322;2023-04-22T10:35:12;72225.75;;;-147.06;34.80
21594;BME280;10959;51.328;7.322;2023-04-22T10:37:43;72184.78;;;-147.06;34.94
21594;BME280;10959;51.328;7.322;2023-04-22T10:40:13;72172.50;;;-147.06;34.70
21594;BME280;10959;51.328;7.322;2023-04-22T10:42:46;72190.94;;;-147.06;34.34
21594;BME280;10959;51.328;7.322;2023-04-22T10:45:13;72172.50;;;-147.06;34.88
21594;BME280;10959;51.328;7.322;2023-04-22T10:47:41;72188.88;;;-147.06;34.92
21594;BME280;10959;51.328;7.322;2023-04-22T10:50:12;72184.78;;;-147.06;34.71
21594;BME280;10959;51.328;7.322;2023-04-22T10:52:41;72180.69;;;-147.06;33.68
21594;BME280;10959;51.328;7.322;2023-04-22T10:55:08;72168.41;;;-147.06;34.42
21594;BME280;10959;51.328;7.322;2023-04-22T10:57:39;72127.44;;;-147.06;34.79
21594;BME280;10959;51.328;7.322;2023-04-22T11:00:37;72156.13;;;-147.06;34.83
21594;BME280;10959;51.328;7.322;2023-04-22T11:03:10;72160.22;;;-147.06;35.20
21594;BME280;10959;51.328;7.322;2023-04-22T11:05:37;72176.59;;;-147.06;35.01
21594;BME280;10959;51.328;7.322;2023-04-22T11:08:06;72190.94;;;-147.06;34.47
21594;BME280;10959;51.328;7.322;2023-04-22T11:10:38;72197.06;;;-147.06;35.08
21594;BME280;10959;51.328;7.322;2023-04-22T11:13:09;72192.97;;;-147.06;34.97
21594;BME280;10959;51.328;7.322;2023-04-22T11:15:39;72203.22;;;-147.06;34.71
21594;BME280;10959;51.328;7.322;2023-04-22T11:18:11;72250.31;;;-147.06;34.78
21594;BME280;10959;51.328;7.322;2023-04-22T11:20:38;72233.94;;;-147.06;35.23
21594;BME280;10959;51.328;7.322;2023-04-22T11:23:05;72221.66;;;-147.06;35.51
21594;BME280;10959;51.328;7.322;2023-04-22T11:25:31;72188.88;;;-147.06;35.86
21594;BME280;10959;51.328;7.322;2023-04-22T11:27:58;72195.03;;;-147.06;35.43
21594;BME280;10959;51.328;7.322;2023-04-22T11:30:26;72201.16;;;-147.06;35.55
21594;BME280;10959;51.328;7.322;2023-04-22T11:32:55;72176.59;;;-147.06;36.00
21594;BME280;10959;51.328;7.322;2023-04-22T11:35:25;72170.44;;;-147.06;35.67
21594;BME280;10959;51.328;7.322;2023-04-22T11:37:53;72170.44;;;-147.06;35.81
21594;BME280;10959;51.328;7.322;2023-04-22T11:40:22;72168.41;;;-147.06;35.62
21594;BME280;10959;51.328;7.322;2023-04-22T11:42:50;72154.06;;;-147.06;36.06
21594;BME280;10959;51.328;7.322;2023-04-22T11:45:16;72156.13;;;-147.06;35.17
21594;BME280;10959;51.328;7.322;2023-04-22T11:47:43;72127.44;;;-147.06;34.82
21594;BME280;10959;51.328;7.322;2023-04-22T11:50:12;72127.44;;;-147.06;35.13
21594;BME280;10959;51.328;7.322;2023-04-22T11:52:43;72127.44;;;-147.06;35.89
21594;BME280;10959;51.328;7.322;2023-04-22T11:55:10;72129.50;;;-147.06;35.48
21594;BME280;10959;51.328;7.322;2023-04-22T11:57:37;72147.94;;;-147.06;35.74
21594;BME280;10959;51.328;7.322;2023-04-22T12:00:04;72180.69;;;-147.06;35.03
21594;BME280;10959;51.328;7.322;2023-04-22T12:02:32;72192.97;;;-147.06;35.10
21594;BME280;10959;51.328;7.322;2023-04-22T12:04:58;72192.97;;;-147.06;34.97
21594;BME280;10959;51.328;7.322;2023-04-22T12:07:27;72209.34;;;-147.06;35.25
21594;BME280;10959;51.328;7.322;2023-04-22T12:09:53;72180.69;;;-147.06;35.81
21594;BME280;10959;51.328;7.322;2023-04-22T12:12:23;72125.41;;;-147.06;36.06
21594;BME280;10959;51.328;7.322;2023-04-22T12:14:50;72096.75;;;-147.06;35.93
21594;BME280;10959;51.328;7.322;2023-04-22T12:17:21;72074.22;;;-147.06;36.07
21594;BME280;10959;51.328;7.322;2023-04-22T12:19:52;72074.22;;;-147.06;35.05
21594;BME280;10959;51.328;7.322;2023-04-22T12:22:23;72104.94;;;-147.06;34.73
21594;BME280;10959;51.328;7.322;2023-04-22T12:24:51;72113.13;;;-147.06;34.67
21594;BME280;10959;51.328;7.322;2023-04-22T12:27:18;72131.53;;;-147.06;35.35
21594;BME280;10959;51.328;7.322;2023-04-22T12:29:50;72168.41;;;-147.06;35.15
21594;BME280;10959;51.328;7.322;2023-04-22T12:32:18;72172.50;;;-147.06;35.46
21594;BME280;10959;51.328;7.322;2023-04-22T12:34:45;72176.59;;;-147.06;35.11
21594;BME280;10959;51.328;7.322;2023-04-22T12:37:11;72180.69;;;-147.06;35.68
21594;BME280;10959;51.328;7.322;2023-04-22T12:39:37;72192.97;;;-147.06;36.01
21594;BME280;10959;51.328;7.322;2023-04-22T12:42:06;72176.59;;;-147.06;35.85